Flag Pond, TN

11:09 AM EST on February 27, 2015 (GMT -0500)
N4WPP | Change Station
CLOSE
Current Station
Personal Weather Station
Location: Flag Pond, TN
Elevation: 2680 ft
Nearby Weather Stations

Elev 2680 ft 35.99 °N, 82.56 °W | Updated 14 seconds ago

Overcast
Overcast
28.9 °F
Feels Like 22 °F
N
6.9
Wind Variable Wind from North
Gusts 6.9 mph

Today
High -- | Low -- °F
--% Chance of Precip.
Yesterday
High -- | Low -- °F
Precip. -- in
7:03 AM 6:23 PM
Waxing Gibbous, 69% visible
Pressure 30.43 in
Visibility 2.5 miles
Clouds Overcast 2800 ft
Windchill 22 °F
Dew Point 21 °F
Humidity 72%
Rainfall 0.00 in
Snow Depth Not available.
UV 2 out of 12
Pollen 2.00 out of 12
Air Quality Not available.
Flu Activity Not available.
METAR KTRI 271553Z 33003KT 2 1/2SM -SN OVC028 M02/M07 A3042 RMK AO2 SLP304 P0000 T10171072

More Conditions Fewer Conditions

Pressure 30.43 in
Visibility 2.5 miles
Clouds Overcast 2800 ft
Windchill 22 °F
Dew Point 21 °F
Humidity 72%
Rainfall 0.00 in
Snow Depth Not available.
UV 2 out of 12
Pollen 2.00 out of 12
Air Quality Not available.
Flu Activity Not available.
METAR KTRI 271553Z 33003KT 2 1/2SM -SN OVC028 M02/M07 A3042 RMK AO2 SLP304 P0000 T10171072

More Conditions Fewer Conditions

10-Day Weather Forecast

Almanac

Astronomy

Feb. 27, 2015 Rise Set
Actual Time
Civil Twilight
Nautical Twilight
Astronomical Twilight
Moon
Length of Visible Light
Length of Day
Tomorrow will be .
, % of the Moon is Illuminated

Today's Extremes

State Highs State Lows

Community

WunderPhotos

Upload Photos

1,800,724 photos uploaded!

WunderBlogs® & News

Nearby

Air Quality

  Air Quality AQ Index Pollutant
Not available.

Snow Depth

Station Depth Elevation

Earthquake Activity

City Distance Mag. Time & Date
Minimum magnitude displayed is 2.5.

Coastal Water Temperatures

Place Temperature

Nearby Weather Stations